EDT,Max TemperatureF,Mean TemperatureF,Min TemperatureF,Max Dew PointF,MeanDew PointF,Min DewpointF,Max Humidity, Mean Humidity, Min Humidity, Max Sea Level PressureIn, Mean Sea Level PressureIn, Min Sea Level PressureIn, Max VisibilityMiles, Mean VisibilityMiles, Min VisibilityMiles, Max Wind SpeedMPH, Mean Wind SpeedMPH, Max Gust SpeedMPH,PrecipitationIn, CloudCover, Events, WindDirDegrees
2012-4-1,75,63,53,57,54,48,93,75,45,29.93,29.84,29.77,10,10,10,13,5,21,0.00,2,Rain,270
2012-4-2,82,68,55,63,57,53,97,75,47,29.94,29.80,29.71,10,10,10,13,6,20,0.00,1,Rain,283
2012-4-3,77,64,53,64,57,52,100,79,54,30.04,29.97,29.90,10,9,2,18,3,24,0.54,3,Rain-Thunderstorm,141
2012-4-4,84,70,59,63,59,56,100,76,39,29.94,29.78,29.65,10,8,0,10,4,17,0.00,2,Fog,241
2012-4-5,66,60,52,60,55,50,96,83,56,29.81,29.74,29.66,10,10,3,16,5,24,0.18,5,Rain-Thunderstorm,54
2012-4-6,63,54,44,50,43,34,100,80,34,30.13,29.91,29.79,10,10,5,17,10,24,0.27,6,Rain,36
2012-4-7,68,52,37,44,36,28,97,58,22,30.32,30.22,30.15,10,10,10,9,2,,0.00,0,,24
2012-4-8,75,59,43,45,40,29,96,53,25,30.19,30.10,29.99,10,10,10,10,4,,0.00,0,,244
2012-4-9,73,62,50,43,36,28,77,41,24,30.12,30.01,29.90,10,10,10,17,5,25,0.00,0,,281
2012-4-10,73,60,48,46,40,35,71,50,27,30.03,29.93,29.83,10,10,10,16,7,30,0.00,1,,254
2012-4-11,62,53,44,30,25,22,48,34,24,30.20,30.03,29.89,10,10,10,16,8,22,0.00,0,,346
2012-4-12,63,47,32,37,28,22,82,49,23,30.29,30.22,30.12,10,10,10,13,3,22,0.00,0,,342
2012-4-13,69,53,37,41,36,31,89,57,26,30.29,30.24,30.18,10,10,10,7,1,,0.00,0,,243
2012-4-14,73,58,42,55,42,36,92,58,26,30.38,30.29,30.22,10,10,10,9,4,17,0.00,0,,210
2012-4-15,78,67,57,62,59,56,100,80,58,30.27,30.21,30.17,10,10,10,13,7,17,0.00,3,,219
2012-4-16,82,68,55,60,58,55,97,68,45,30.24,30.17,30.11,10,10,10,15,9,23,0.00,1,,225
2012-4-17,84,70,57,62,59,57,97,72,42,30.19,30.12,30.06,10,10,10,16,5,,0.06,2,Rain-Thunderstorm,306
2012-4-18,61,57,53,56,53,50,100,87,69,30.15,30.11,30.06,10,10,6,15,9,,0.12,7,Rain,17
2012-4-19,63,58,53,55,53,51,97,88,75,30.13,30.09,30.05,10,9,5,10,7,,0.00,8,,37
2012-4-20,71,59,48,59,55,48,100,82,60,30.06,29.98,29.89,10,8,2,7,1,,0.00,5,,299
2012-4-21,78,68,59,63,60,58,100,81,52,29.90,29.80,29.70,10,9,4,8,2,,0.00,5,,233
2012-4-22,64,56,48,63,54,43,100,93,83,29.70,29.59,29.51,10,10,4,16,10,24,0.24,8,Rain-Thunderstorm,13
2012-4-23,57,47,39,40,33,24,89,61,31,29.80,29.67,29.61,10,10,10,16,7,25,0.00,2,,279
2012-4-24,64,49,34,37,29,18,82,50,18,29.88,29.82,29.79,10,10,10,20,8,30,0.00,1,,253
2012-4-25,71,60,48,56,49,38,100,75,51,30.03,29.94,29.88,10,10,6,9,3,,0.06,5,Rain,226
2012-4-26,72,66,62,64,58,53,90,75,63,29.89,29.85,29.82,10,10,10,20,9,32,0.01,3,Rain-Thunderstorm,233
2012-4-27,82,70,59,63,61,58,100,76,47,30.06,29.98,29.89,10,10,7,18,5,31,0.00,3,Rain-Thunderstorm,218
2012-4-28,64,60,55,63,54,48,93,79,64,30.18,30.14,30.06,10,10,10,12,7,,0.00,7,,49
2012-4-29,79,68,57,65,60,54,100,87,62,30.20,30.16,30.12,10,7,2,6,2,,0.00,6,,351
2012-4-30,82,71,60,67,64,61,100,83,56,30.23,30.17,30.11,10,8,1,8,2,,0.00,3,,172